This is the latest recevied weather packets stored in our database for station/object OK1TBF-15. If no packets are shown the sender has not sent any weather packets the latest 10 day(s).
| Time | Temp. | Humidity | Pressure | Rain* | Wind** | Luminosity | Snow |
|---|---|---|---|---|---|---|---|
| 1778102865 | 13.89° C | 71% | 1005.6 hPa | - | - | - | - |
| 1778102265 | 13.89° C | 71% | 1005.5 hPa | - | - | - | - |
| 1778101665 | 13.89° C | 70% | 1005.4 hPa | - | - | - | - |
| 1778101065 | 13.89° C | 71% | 1005.5 hPa | - | - | - | - |
| 1778100465 | 13.89° C | 71% | 1005.7 hPa | - | - | - | - |
| 1778099865 | 13.89° C | 71% | 1005.6 hPa | - | - | - | - |
| 1778099265 | 13.89° C | 71% | 1005.5 hPa | - | - | - | - |
| 1778098666 | 13.33° C | 71% | 1005.5 hPa | - | - | - | - |
| 1778098065 | 13.33° C | 71% | 1005.6 hPa | - | - | - | - |
| 1778097466 | 13.33° C | 70% | 1005.6 hPa | - | - | - | - |
| 1778096866 | 13.89° C | 69% | 1005.5 hPa | - | - | - | - |
| 1778096265 | 13.89° C | 69% | 1005.6 hPa | - | - | - | - |
| 1778095665 | 13.89° C | 69% | 1005.7 hPa | - | - | - | - |
| 1778095065 | 13.89° C | 70% | 1005.9 hPa | - | - | - | - |
| 1778094465 | 14.44° C | 70% | 1005.9 hPa | - | - | - | - |
| 1778093865 | 14.44° C | 70% | 1005.8 hPa | - | - | - | - |
| 1778093265 | 14.44° C | 71% | 1005.9 hPa | - | - | - | - |
| 1778092666 | 14.44° C | 72% | 1005.7 hPa | - | - | - | - |
| 1778092065 | 14.44° C | 72% | 1005.4 hPa | - | - | - | - |
| 1778091466 | 15.56° C | 67% | 1005.4 hPa | - | - | - | - |
| 1778090866 | 16.11° C | 64% | 1004.9 hPa | - | - | - | - |
| 1778090265 | 15.56° C | 64% | 1004.7 hPa | - | - | - | - |
| 1778089665 | 16.11° C | 60% | 1004.7 hPa | - | - | - | - |
| 1778089065 | 16.11° C | 62% | 1004.7 hPa | - | - | - | - |
| 1778088465 | 16.67° C | 61% | 1004.8 hPa | - | - | - | - |
* Rain since midnight (hover to see other rain measurements)
** Current wind speed in m/s (hover to see current wind gust speed)